sensor_id;sensor_type;location;lat;lon;timestamp;temperature;humidity
1175;DHT22;576;48.418;10.074;2023-03-21T00:00:53;23.40;55.90
1175;DHT22;576;48.418;10.074;2023-03-21T00:03:22;23.40;55.90
1175;DHT22;576;48.418;10.074;2023-03-21T00:05:50;23.40;55.90
1175;DHT22;576;48.418;10.074;2023-03-21T00:08:20;23.40;55.90
1175;DHT22;576;48.418;10.074;2023-03-21T00:10:56;23.40;55.90
1175;DHT22;576;48.418;10.074;2023-03-21T00:13:25;23.40;55.90
1175;DHT22;576;48.418;10.074;2023-03-21T00:15:54;23.40;55.90
1175;DHT22;576;48.418;10.074;2023-03-21T00:18:43;23.40;55.90
1175;DHT22;576;48.418;10.074;2023-03-21T00:21:14;23.40;55.90
1175;DHT22;576;48.418;10.074;2023-03-21T00:24:02;23.40;55.90
1175;DHT22;576;48.418;10.074;2023-03-21T00:26:32;23.40;55.90
1175;DHT22;576;48.418;10.074;2023-03-21T00:29:01;23.40;56.00
1175;DHT22;576;48.418;10.074;2023-03-21T00:31:29;23.40;56.00
1175;DHT22;576;48.418;10.074;2023-03-21T00:33:58;23.40;56.00
1175;DHT22;576;48.418;10.074;2023-03-21T00:36:29;23.40;56.00
1175;DHT22;576;48.418;10.074;2023-03-21T00:38:58;23.40;56.00
1175;DHT22;576;48.418;10.074;2023-03-21T00:41:26;23.30;56.00
1175;DHT22;576;48.418;10.074;2023-03-21T00:44:10;23.40;56.00
1175;DHT22;576;48.418;10.074;2023-03-21T00:46:41;23.40;56.00
1175;DHT22;576;48.418;10.074;2023-03-21T00:49:30;23.30;56.00
1175;DHT22;576;48.418;10.074;2023-03-21T00:52:01;23.30;56.00
1175;DHT22;576;48.418;10.074;2023-03-21T00:54:44;23.30;56.00
1175;DHT22;576;48.418;10.074;2023-03-21T00:57:12;23.30;56.00
1175;DHT22;576;48.418;10.074;2023-03-21T00:59:41;23.30;56.00
1175;DHT22;576;48.418;10.074;2023-03-21T01:02:10;23.30;56.00
1175;DHT22;576;48.418;10.074;2023-03-21T01:04:40;23.30;56.00
1175;DHT22;576;48.418;10.074;2023-03-21T01:07:09;23.30;56.00
1175;DHT22;576;48.418;10.074;2023-03-21T01:09:37;23.30;56.00
1175;DHT22;576;48.418;10.074;2023-03-21T01:12:05;23.30;56.00
1175;DHT22;576;48.418;10.074;2023-03-21T01:14:36;23.30;56.00
1175;DHT22;576;48.418;10.074;2023-03-21T01:17:05;23.30;55.90
1175;DHT22;576;48.418;10.074;2023-03-21T01:19:34;23.30;55.90
1175;DHT22;576;48.418;10.074;2023-03-21T01:22:16;23.30;55.90
1175;DHT22;576;48.418;10.074;2023-03-21T01:24:44;23.30;55.90
1175;DHT22;576;48.418;10.074;2023-03-21T01:27:24;23.30;55.90
1175;DHT22;576;48.418;10.074;2023-03-21T01:29:53;23.30;55.90
1175;DHT22;576;48.418;10.074;2023-03-21T01:32:22;23.30;55.90
1175;DHT22;576;48.418;10.074;2023-03-21T01:34:50;23.30;55.90
1175;DHT22;576;48.418;10.074;2023-03-21T01:37:21;23.30;55.90
1175;DHT22;576;48.418;10.074;2023-03-21T01:39:52;23.30;55.90
1175;DHT22;576;48.418;10.074;2023-03-21T01:42:20;23.30;55.90
1175;DHT22;576;48.418;10.074;2023-03-21T01:44:54;23.30;55.90
1175;DHT22;576;48.418;10.074;2023-03-21T01:47:29;23.30;56.00
1175;DHT22;576;48.418;10.074;2023-03-21T01:50:15;23.30;56.00
1175;DHT22;576;48.418;10.074;2023-03-21T01:52:52;23.30;55.90
1175;DHT22;576;48.418;10.074;2023-03-21T01:55:26;23.30;56.00
1175;DHT22;576;48.418;10.074;2023-03-21T01:57:59;23.30;56.00
1175;DHT22;576;48.418;10.074;2023-03-21T02:01:02;23.30;56.00
1175;DHT22;576;48.418;10.074;2023-03-21T02:03:45;23.30;56.00
1175;DHT22;576;48.418;10.074;2023-03-21T02:06:45;23.30;56.00
1175;DHT22;576;48.418;10.074;2023-03-21T02:09:28;23.30;56.00
1175;DHT22;576;48.418;10.074;2023-03-21T02:11:59;23.20;56.00
1175;DHT22;576;48.418;10.074;2023-03-21T02:14:33;23.20;56.00
1175;DHT22;576;48.418;10.074;2023-03-21T02:17:16;23.20;56.00
1175;DHT22;576;48.418;10.074;2023-03-21T02:20:27;23.20;56.00
1175;DHT22;576;48.418;10.074;2023-03-21T02:23:28;23.20;56.00
1175;DHT22;576;48.418;10.074;2023-03-21T02:26:27;23.20;56.00
1175;DHT22;576;48.418;10.074;2023-03-21T02:29:18;23.20;56.00
1175;DHT22;576;48.418;10.074;2023-03-21T02:31:54;23.20;56.00
1175;DHT22;576;48.418;10.074;2023-03-21T02:35:01;23.20;56.00
1175;DHT22;576;48.418;10.074;2023-03-21T02:37:34;23.20;56.00
1175;DHT22;576;48.418;10.074;2023-03-21T02:40:14;23.20;56.00
1175;DHT22;576;48.418;10.074;2023-03-21T02:42:54;23.20;56.00
1175;DHT22;576;48.418;10.074;2023-03-21T02:45:34;23.20;56.00
1175;DHT22;576;48.418;10.074;2023-03-21T02:48:08;23.20;55.90
1175;DHT22;576;48.418;10.074;2023-03-21T02:50:55;23.20;56.00
1175;DHT22;576;48.418;10.074;2023-03-21T02:53:30;23.20;55.90
1175;DHT22;576;48.418;10.074;2023-03-21T02:56:03;23.20;55.90
1175;DHT22;576;48.418;10.074;2023-03-21T02:58:41;23.20;55.90
1175;DHT22;576;48.418;10.074;2023-03-21T03:01:10;23.20;55.90
1175;DHT22;576;48.418;10.074;2023-03-21T03:03:43;23.20;55.90
1175;DHT22;576;48.418;10.074;2023-03-21T03:06:17;23.20;55.90
1175;DHT22;576;48.418;10.074;2023-03-21T03:08:59;23.20;55.90
1175;DHT22;576;48.418;10.074;2023-03-21T03:11:34;23.20;55.90
1175;DHT22;576;48.418;10.074;2023-03-21T03:14:23;23.20;55.90
1175;DHT22;576;48.418;10.074;2023-03-21T03:17:19;23.20;56.00
1175;DHT22;576;48.418;10.074;2023-03-21T03:20:03;23.20;55.90
1175;DHT22;576;48.418;10.074;2023-03-21T03:22:50;23.20;55.90
1175;DHT22;576;48.418;10.074;2023-03-21T03:25:27;23.30;55.90
1175;DHT22;576;48.418;10.074;2023-03-21T03:28:15;23.30;55.80
1175;DHT22;576;48.418;10.074;2023-03-21T03:30:45;23.30;55.80
1175;DHT22;576;48.418;10.074;2023-03-21T03:33:41;23.30;55.80
1175;DHT22;576;48.418;10.074;2023-03-21T03:36:13;23.20;55.80
1175;DHT22;576;48.418;10.074;2023-03-21T03:39:08;23.30;55.80
1175;DHT22;576;48.418;10.074;2023-03-21T03:41:45;23.20;55.80
1175;DHT22;576;48.418;10.074;2023-03-21T03:44:39;23.20;55.80
1175;DHT22;576;48.418;10.074;2023-03-21T03:47:09;23.20;55.80
1175;DHT22;576;48.418;10.074;2023-03-21T03:50:02;23.20;55.80
1175;DHT22;576;48.418;10.074;2023-03-21T03:52:37;23.20;55.80
1175;DHT22;576;48.418;10.074;2023-03-21T03:55:22;23.20;55.80
1175;DHT22;576;48.418;10.074;2023-03-21T03:57:57;23.20;55.80
1175;DHT22;576;48.418;10.074;2023-03-21T04:00:26;23.20;55.70
1175;DHT22;576;48.418;10.074;2023-03-21T04:02:54;23.20;55.70
1175;DHT22;576;48.418;10.074;2023-03-21T04:05:26;23.20;55.80
1175;DHT22;576;48.418;10.074;2023-03-21T04:07:54;23.20;55.70
1175;DHT22;576;48.418;10.074;2023-03-21T04:10:32;23.20;55.70
1175;DHT22;576;48.418;10.074;2023-03-21T04:13:02;23.20;55.70
1175;DHT22;576;48.418;10.074;2023-03-21T04:15:43;23.20;55.70
1175;DHT22;576;48.418;10.074;2023-03-21T04:18:14;23.10;55.70
1175;DHT22;576;48.418;10.074;2023-03-21T04:20:43;23.10;55.70
1175;DHT22;576;48.418;10.074;2023-03-21T04:23:12;23.20;55.70
1175;DHT22;576;48.418;10.074;2023-03-21T04:25:44;23.20;55.70
1175;DHT22;576;48.418;10.074;2023-03-21T04:28:29;23.20;55.70
1175;DHT22;576;48.418;10.074;2023-03-21T04:31:04;23.10;55.70
1175;DHT22;576;48.418;10.074;2023-03-21T04:33:50;23.10;55.70
1175;DHT22;576;48.418;10.074;2023-03-21T04:36:19;23.10;55.70
1175;DHT22;576;48.418;10.074;2023-03-21T04:38:56;23.10;55.70
1175;DHT22;576;48.418;10.074;2023-03-21T04:41:27;23.10;55.70
1175;DHT22;576;48.418;10.074;2023-03-21T04:43:57;23.10;55.70
1175;DHT22;576;48.418;10.074;2023-03-21T04:46:25;23.10;55.70
1175;DHT22;576;48.418;10.074;2023-03-21T04:48:53;23.10;55.70
1175;DHT22;576;48.418;10.074;2023-03-21T04:51:22;23.10;55.70
1175;DHT22;576;48.418;10.074;2023-03-21T04:53:50;23.10;55.70
1175;DHT22;576;48.418;10.074;2023-03-21T04:56:23;23.10;55.70
1175;DHT22;576;48.418;10.074;2023-03-21T04:59:00;23.20;55.70
1175;DHT22;576;48.418;10.074;2023-03-21T05:01:29;23.20;55.70
1175;DHT22;576;48.418;10.074;2023-03-21T05:03:57;23.20;55.60
1175;DHT22;576;48.418;10.074;2023-03-21T05:06:26;23.20;55.60
1175;DHT22;576;48.418;10.074;2023-03-21T05:08:55;23.20;55.60
1175;DHT22;576;48.418;10.074;2023-03-21T05:11:26;23.20;55.60
1175;DHT22;576;48.418;10.074;2023-03-21T05:13:57;23.20;55.60
1175;DHT22;576;48.418;10.074;2023-03-21T05:16:26;23.20;55.50
1175;DHT22;576;48.418;10.074;2023-03-21T05:18:59;23.20;55.50
1175;DHT22;576;48.418;10.074;2023-03-21T05:21:33;23.20;55.50
1175;DHT22;576;48.418;10.074;2023-03-21T05:24:14;23.20;55.50
1175;DHT22;576;48.418;10.074;2023-03-21T05:26:43;23.20;55.50
1175;DHT22;576;48.418;10.074;2023-03-21T05:29:18;23.20;55.50
1175;DHT22;576;48.418;10.074;2023-03-21T05:32:06;23.10;55.50
1175;DHT22;576;48.418;10.074;2023-03-21T05:34:35;23.10;55.50
1175;DHT22;576;48.418;10.074;2023-03-21T05:37:04;23.10;55.50
1175;DHT22;576;48.418;10.074;2023-03-21T05:39:50;23.20;55.50
1175;DHT22;576;48.418;10.074;2023-03-21T05:42:39;23.10;55.60
1175;DHT22;576;48.418;10.074;2023-03-21T05:45:14;23.10;55.60
1175;DHT22;576;48.418;10.074;2023-03-21T05:47:44;23.10;55.60
1175;DHT22;576;48.418;10.074;2023-03-21T05:50:13;23.20;55.60
1175;DHT22;576;48.418;10.074;2023-03-21T05:52:48;23.10;55.60
1175;DHT22;576;48.418;10.074;2023-03-21T05:55:16;23.10;55.70
1175;DHT22;576;48.418;10.074;2023-03-21T05:57:45;23.20;55.70
1175;DHT22;576;48.418;10.074;2023-03-21T06:00:20;23.20;55.80
1175;DHT22;576;48.418;10.074;2023-03-21T06:03:06;23.20;55.90
1175;DHT22;576;48.418;10.074;2023-03-21T06:05:54;23.20;55.90
1175;DHT22;576;48.418;10.074;2023-03-21T06:08:27;23.20;56.00
1175;DHT22;576;48.418;10.074;2023-03-21T06:10:55;23.20;56.20
1175;DHT22;576;48.418;10.074;2023-03-21T06:13:24;23.20;56.20
1175;DHT22;576;48.418;10.074;2023-03-21T06:15:52;23.20;56.20
1175;DHT22;576;48.418;10.074;2023-03-21T06:18:25;23.20;56.20
1175;DHT22;576;48.418;10.074;2023-03-21T06:21:00;23.20;56.30
1175;DHT22;576;48.418;10.074;2023-03-21T06:23:28;23.20;56.30
1175;DHT22;576;48.418;10.074;2023-03-21T06:25:57;23.20;56.40
1175;DHT22;576;48.418;10.074;2023-03-21T06:28:26;23.20;56.40
1175;DHT22;576;48.418;10.074;2023-03-21T06:30:54;23.20;56.40
1175;DHT22;576;48.418;10.074;2023-03-21T06:33:26;23.20;56.40
1175;DHT22;576;48.418;10.074;2023-03-21T06:35:56;23.20;56.40
1175;DHT22;576;48.418;10.074;2023-03-21T06:38:25;23.20;56.50
1175;DHT22;576;48.418;10.074;2023-03-21T06:40:53;23.20;62.80
1175;DHT22;576;48.418;10.074;2023-03-21T06:43:24;23.20;63.20
1175;DHT22;576;48.418;10.074;2023-03-21T06:45:52;23.30;63.60
1175;DHT22;576;48.418;10.074;2023-03-21T06:48:20;23.30;62.90
1175;DHT22;576;48.418;10.074;2023-03-21T06:50:52;23.30;62.90
1175;DHT22;576;48.418;10.074;2023-03-21T06:53:23;23.30;63.00
1175;DHT22;576;48.418;10.074;2023-03-21T06:56:16;23.30;64.50
1175;DHT22;576;48.418;10.074;2023-03-21T06:58:44;23.40;64.00
1175;DHT22;576;48.418;10.074;2023-03-21T07:01:23;23.30;63.90
1175;DHT22;576;48.418;10.074;2023-03-21T07:04:01;23.40;64.00
1175;DHT22;576;48.418;10.074;2023-03-21T07:06:31;23.40;63.70
1175;DHT22;576;48.418;10.074;2023-03-21T07:09:00;23.40;63.30
1175;DHT22;576;48.418;10.074;2023-03-21T07:11:31;23.40;62.90
1175;DHT22;576;48.418;10.074;2023-03-21T07:14:00;23.40;62.60
1175;DHT22;576;48.418;10.074;2023-03-21T07:16:28;23.40;62.30
1175;DHT22;576;48.418;10.074;2023-03-21T07:18:56;23.40;61.90
1175;DHT22;576;48.418;10.074;2023-03-21T07:21:25;23.40;61.50
1175;DHT22;576;48.418;10.074;2023-03-21T07:23:55;23.40;62.30
1175;DHT22;576;48.418;10.074;2023-03-21T07:26:24;23.40;62.20
1175;DHT22;576;48.418;10.074;2023-03-21T07:28:52;23.40;62.10
1175;DHT22;576;48.418;10.074;2023-03-21T07:31:20;23.40;61.90
1175;DHT22;576;48.418;10.074;2023-03-21T07:33:51;23.50;61.90
1175;DHT22;576;48.418;10.074;2023-03-21T07:36:21;23.50;61.10
1175;DHT22;576;48.418;10.074;2023-03-21T07:38:49;23.50;61.00
1175;DHT22;576;48.418;10.074;2023-03-21T07:41:23;23.50;60.90
1175;DHT22;576;48.418;10.074;2023-03-21T07:43:51;23.50;60.80
1175;DHT22;576;48.418;10.074;2023-03-21T07:46:20;23.50;60.70
1175;DHT22;576;48.418;10.074;2023-03-21T07:48:48;23.60;60.60
1175;DHT22;576;48.418;10.074;2023-03-21T07:51:16;23.60;60.40
1175;DHT22;576;48.418;10.074;2023-03-21T07:53:44;23.60;60.30
1175;DHT22;576;48.418;10.074;2023-03-21T07:56:14;23.60;60.10
1175;DHT22;576;48.418;10.074;2023-03-21T07:58:44;23.70;60.00
1175;DHT22;576;48.418;10.074;2023-03-21T08:01:12;23.70;60.00
1175;DHT22;576;48.418;10.074;2023-03-21T08:03:40;23.70;59.80
1175;DHT22;576;48.418;10.074;2023-03-21T08:06:09;23.70;59.70
1175;DHT22;576;48.418;10.074;2023-03-21T08:08:38;23.80;59.60
1175;DHT22;576;48.418;10.074;2023-03-21T08:11:06;23.80;59.50
1175;DHT22;576;48.418;10.074;2023-03-21T08:13:35;23.80;59.40
1175;DHT22;576;48.418;10.074;2023-03-21T08:16:05;23.80;59.30
1175;DHT22;576;48.418;10.074;2023-03-21T08:18:34;23.80;59.30
1175;DHT22;576;48.418;10.074;2023-03-21T08:21:02;23.90;59.20
1175;DHT22;576;48.418;10.074;2023-03-21T08:23:30;23.90;59.10
1175;DHT22;576;48.418;10.074;2023-03-21T08:25:58;23.90;59.10
1175;DHT22;576;48.418;10.074;2023-03-21T08:28:27;23.90;59.00
1175;DHT22;576;48.418;10.074;2023-03-21T08:30:55;23.90;59.00
1175;DHT22;576;48.418;10.074;2023-03-21T08:33:25;23.90;58.90
1175;DHT22;576;48.418;10.074;2023-03-21T08:35:53;23.90;58.90
1175;DHT22;576;48.418;10.074;2023-03-21T08:38:21;23.90;58.80
1175;DHT22;576;48.418;10.074;2023-03-21T08:40:49;24.00;58.70
1175;DHT22;576;48.418;10.074;2023-03-21T08:43:18;24.00;58.70
1175;DHT22;576;48.418;10.074;2023-03-21T08:45:46;24.00;58.70
1175;DHT22;576;48.418;10.074;2023-03-21T08:48:14;24.00;58.60
1175;DHT22;576;48.418;10.074;2023-03-21T08:50:44;24.00;58.60
1175;DHT22;576;48.418;10.074;2023-03-21T08:53:12;24.00;58.50
1175;DHT22;576;48.418;10.074;2023-03-21T08:55:42;24.00;58.40
1175;DHT22;576;48.418;10.074;2023-03-21T08:58:10;24.00;58.40
1175;DHT22;576;48.418;10.074;2023-03-21T09:00:38;24.10;58.40
1175;DHT22;576;48.418;10.074;2023-03-21T09:03:06;24.10;58.40
1175;DHT22;576;48.418;10.074;2023-03-21T09:05:37;24.10;58.30
1175;DHT22;576;48.418;10.074;2023-03-21T09:08:07;24.10;58.30
1175;DHT22;576;48.418;10.074;2023-03-21T09:10:35;24.10;58.10
1175;DHT22;576;48.418;10.074;2023-03-21T09:13:03;24.10;58.10
1175;DHT22;576;48.418;10.074;2023-03-21T09:15:32;24.10;58.10
1175;DHT22;576;48.418;10.074;2023-03-21T09:18:01;24.10;58.00
1175;DHT22;576;48.418;10.074;2023-03-21T09:20:39;24.20;58.00
1175;DHT22;576;48.418;10.074;2023-03-21T09:23:10;24.20;57.90
1175;DHT22;576;48.418;10.074;2023-03-21T09:25:39;24.20;57.80
1175;DHT22;576;48.418;10.074;2023-03-21T09:28:08;24.20;57.80
1175;DHT22;576;48.418;10.074;2023-03-21T09:30:36;24.20;57.80
1175;DHT22;576;48.418;10.074;2023-03-21T09:33:05;24.30;57.50
1175;DHT22;576;48.418;10.074;2023-03-21T09:35:38;24.30;57.50
1175;DHT22;576;48.418;10.074;2023-03-21T09:38:07;24.30;57.40
1175;DHT22;576;48.418;10.074;2023-03-21T09:40:48;24.30;57.30
1175;DHT22;576;48.418;10.074;2023-03-21T09:43:30;24.30;57.30
1175;DHT22;576;48.418;10.074;2023-03-21T09:46:05;24.40;57.20
1175;DHT22;576;48.418;10.074;2023-03-21T09:48:43;24.40;57.10
1175;DHT22;576;48.418;10.074;2023-03-21T09:51:26;24.40;57.10
1175;DHT22;576;48.418;10.074;2023-03-21T09:54:00;24.40;57.00
1175;DHT22;576;48.418;10.074;2023-03-21T09:56:31;24.40;57.00
1175;DHT22;576;48.418;10.074;2023-03-21T09:59:00;24.40;57.00
1175;DHT22;576;48.418;10.074;2023-03-21T10:01:30;24.50;57.00
1175;DHT22;576;48.418;10.074;2023-03-21T10:04:02;24.50;56.90
1175;DHT22;576;48.418;10.074;2023-03-21T10:06:33;24.50;56.90
1175;DHT22;576;48.418;10.074;2023-03-21T10:09:10;24.50;56.80
1175;DHT22;576;48.418;10.074;2023-03-21T10:11:43;24.60;56.80
1175;DHT22;576;48.418;10.074;2023-03-21T10:14:18;24.60;56.70
1175;DHT22;576;48.418;10.074;2023-03-21T10:16:50;24.60;56.70
1175;DHT22;576;48.418;10.074;2023-03-21T10:19:19;24.60;56.70
1175;DHT22;576;48.418;10.074;2023-03-21T10:21:50;24.60;56.60
1175;DHT22;576;48.418;10.074;2023-03-21T10:24:32;24.60;56.70
1175;DHT22;576;48.418;10.074;2023-03-21T10:27:03;24.60;56.60
1175;DHT22;576;48.418;10.074;2023-03-21T10:29:33;24.60;56.60
1175;DHT22;576;48.418;10.074;2023-03-21T10:32:04;24.60;56.60
1175;DHT22;576;48.418;10.074;2023-03-21T10:34:37;24.60;56.60
1175;DHT22;576;48.418;10.074;2023-03-21T10:37:07;24.60;56.60
1175;DHT22;576;48.418;10.074;2023-03-21T10:39:37;24.70;56.70
1175;DHT22;576;48.418;10.074;2023-03-21T10:42:16;24.70;56.60
1175;DHT22;576;48.418;10.074;2023-03-21T10:44:47;24.70;56.60
1175;DHT22;576;48.418;10.074;2023-03-21T10:47:19;24.70;56.50
1175;DHT22;576;48.418;10.074;2023-03-21T10:49:47;24.80;56.50
1175;DHT22;576;48.418;10.074;2023-03-21T10:52:33;24.80;56.30
1175;DHT22;576;48.418;10.074;2023-03-21T10:55:07;24.90;56.10
1175;DHT22;576;48.418;10.074;2023-03-21T10:57:44;24.90;56.00
1175;DHT22;576;48.418;10.074;2023-03-21T11:00:19;25.00;55.80
1175;DHT22;576;48.418;10.074;2023-03-21T11:02:49;25.10;55.70
1175;DHT22;576;48.418;10.074;2023-03-21T11:05:22;25.30;55.50
1175;DHT22;576;48.418;10.074;2023-03-21T11:08:02;25.40;55.20
1175;DHT22;576;48.418;10.074;2023-03-21T11:10:34;25.60;54.80
1175;DHT22;576;48.418;10.074;2023-03-21T11:13:07;25.70;54.50
1175;DHT22;576;48.418;10.074;2023-03-21T11:15:41;25.80;54.30
1175;DHT22;576;48.418;10.074;2023-03-21T11:18:16;25.90;54.10
1175;DHT22;576;48.418;10.074;2023-03-21T11:20:50;26.00;53.90
1175;DHT22;576;48.418;10.074;2023-03-21T11:23:19;26.10;53.70
1175;DHT22;576;48.418;10.074;2023-03-21T11:25:48;26.10;53.40
1175;DHT22;576;48.418;10.074;2023-03-21T11:28:21;26.10;53.50
1175;DHT22;576;48.418;10.074;2023-03-21T11:30:52;26.00;53.30
1175;DHT22;576;48.418;10.074;2023-03-21T11:33:24;25.90;53.70
1175;DHT22;576;48.418;10.074;2023-03-21T11:35:58;25.80;54.10
1175;DHT22;576;48.418;10.074;2023-03-21T11:38:30;25.70;54.20
1175;DHT22;576;48.418;10.074;2023-03-21T11:41:00;25.70;54.40
1175;DHT22;576;48.418;10.074;2023-03-21T11:43:31;25.60;54.60
1175;DHT22;576;48.418;10.074;2023-03-21T11:46:06;25.60;54.30
1175;DHT22;576;48.418;10.074;2023-03-21T11:48:38;25.60;54.20
1175;DHT22;576;48.418;10.074;2023-03-21T11:51:13;25.70;54.00
1175;DHT22;576;48.418;10.074;2023-03-21T11:53:47;25.70;53.90
1175;DHT22;576;48.418;10.074;2023-03-21T11:56:22;25.80;53.80
1175;DHT22;576;48.418;10.074;2023-03-21T12:01:54;26.00;53.50
1175;DHT22;576;48.418;10.074;2023-03-21T12:04:37;26.10;53.30
1175;DHT22;576;48.418;10.074;2023-03-21T12:07:24;26.30;53.10
1175;DHT22;576;48.418;10.074;2023-03-21T12:10:00;26.40;52.80
1175;DHT22;576;48.418;10.074;2023-03-21T12:12:37;26.40;52.70
1175;DHT22;576;48.418;10.074;2023-03-21T12:15:16;26.50;52.60
1175;DHT22;576;48.418;10.074;2023-03-21T12:17:53;26.40;52.70
1175;DHT22;576;48.418;10.074;2023-03-21T12:20:29;26.40;52.70
1175;DHT22;576;48.418;10.074;2023-03-21T12:23:39;26.40;52.70
1175;DHT22;576;48.418;10.074;2023-03-21T12:26:17;26.30;52.80
1175;DHT22;576;48.418;10.074;2023-03-21T12:28:57;26.30;53.00
1175;DHT22;576;48.418;10.074;2023-03-21T12:31:38;26.30;53.00
1175;DHT22;576;48.418;10.074;2023-03-21T12:34:22;26.20;53.00
1175;DHT22;576;48.418;10.074;2023-03-21T12:37:04;26.20;53.10
1175;DHT22;576;48.418;10.074;2023-03-21T12:39:36;26.20;53.20
1175;DHT22;576;48.418;10.074;2023-03-21T12:42:21;26.20;53.20
1175;DHT22;576;48.418;10.074;2023-03-21T12:44:57;26.10;53.30
1175;DHT22;576;48.418;10.074;2023-03-21T12:47:33;26.10;53.40
1175;DHT22;576;48.418;10.074;2023-03-21T12:50:07;26.10;53.40
1175;DHT22;576;48.418;10.074;2023-03-21T12:52:42;26.10;53.40
1175;DHT22;576;48.418;10.074;2023-03-21T12:55:15;26.00;53.50
1175;DHT22;576;48.418;10.074;2023-03-21T12:57:48;26.00;53.60
1175;DHT22;576;48.418;10.074;2023-03-21T13:00:26;26.00;53.60
1175;DHT22;576;48.418;10.074;2023-03-21T13:02:58;26.00;53.60
1175;DHT22;576;48.418;10.074;2023-03-21T13:05:29;26.00;53.50
1175;DHT22;576;48.418;10.074;2023-03-21T13:08:02;26.00;53.50
1175;DHT22;576;48.418;10.074;2023-03-21T13:10:33;25.90;53.60
1175;DHT22;576;48.418;10.074;2023-03-21T13:13:08;25.90;53.60
1175;DHT22;576;48.418;10.074;2023-03-21T13:15:55;25.80;53.70
1175;DHT22;576;48.418;10.074;2023-03-21T13:18:44;25.80;53.70
1175;DHT22;576;48.418;10.074;2023-03-21T13:21:20;25.70;53.80
1175;DHT22;576;48.418;10.074;2023-03-21T13:23:59;25.70;53.90
1175;DHT22;576;48.418;10.074;2023-03-21T13:26:37;25.70;54.00
1175;DHT22;576;48.418;10.074;2023-03-21T13:29:22;25.60;54.00
1175;DHT22;576;48.418;10.074;2023-03-21T13:31:53;25.50;54.10
1175;DHT22;576;48.418;10.074;2023-03-21T13:34:24;25.50;54.20
1175;DHT22;576;48.418;10.074;2023-03-21T13:36:55;25.40;54.30
1175;DHT22;576;48.418;10.074;2023-03-21T13:39:26;25.40;54.40
1175;DHT22;576;48.418;10.074;2023-03-21T13:42:01;25.40;54.60
1175;DHT22;576;48.418;10.074;2023-03-21T13:44:37;25.30;54.60
1175;DHT22;576;48.418;10.074;2023-03-21T13:47:22;25.30;54.60
1175;DHT22;576;48.418;10.074;2023-03-21T13:50:24;25.20;54.60
1175;DHT22;576;48.418;10.074;2023-03-21T13:53:29;25.20;54.80
1175;DHT22;576;48.418;10.074;2023-03-21T13:56:20;25.10;54.90
1175;DHT22;576;48.418;10.074;2023-03-21T13:58:56;25.10;54.90
1175;DHT22;576;48.418;10.074;2023-03-21T14:01:36;25.10;55.00
1175;DHT22;576;48.418;10.074;2023-03-21T14:04:16;25.00;55.50
1175;DHT22;576;48.418;10.074;2023-03-21T14:06:52;25.00;55.70
1175;DHT22;576;48.418;10.074;2023-03-21T14:09:25;25.10;55.80
1175;DHT22;576;48.418;10.074;2023-03-21T14:11:55;25.10;56.00
1175;DHT22;576;48.418;10.074;2023-03-21T14:14:37;25.10;56.00
1175;DHT22;576;48.418;10.074;2023-03-21T14:17:11;25.20;56.00
1175;DHT22;576;48.418;10.074;2023-03-21T14:19:39;25.20;56.00
1175;DHT22;576;48.418;10.074;2023-03-21T14:22:12;25.20;56.30
1175;DHT22;576;48.418;10.074;2023-03-21T14:24:46;25.20;56.50
1175;DHT22;576;48.418;10.074;2023-03-21T14:27:14;25.20;56.50
1175;DHT22;576;48.418;10.074;2023-03-21T14:29:43;25.20;56.50
1175;DHT22;576;48.418;10.074;2023-03-21T14:32:19;25.30;56.70
1175;DHT22;576;48.418;10.074;2023-03-21T14:34:48;25.30;56.60
1175;DHT22;576;48.418;10.074;2023-03-21T14:37:30;25.30;56.70
1175;DHT22;576;48.418;10.074;2023-03-21T14:40:04;25.30;56.70
1175;DHT22;576;48.418;10.074;2023-03-21T14:42:35;25.30;56.60
1175;DHT22;576;48.418;10.074;2023-03-21T14:45:15;25.30;56.70
1175;DHT22;576;48.418;10.074;2023-03-21T14:47:57;25.30;56.70
1175;DHT22;576;48.418;10.074;2023-03-21T14:50:37;25.30;56.70
1175;DHT22;576;48.418;10.074;2023-03-21T14:53:12;25.30;56.80
1175;DHT22;576;48.418;10.074;2023-03-21T14:55:42;25.30;56.80
1175;DHT22;576;48.418;10.074;2023-03-21T14:58:12;25.30;56.90
1175;DHT22;576;48.418;10.074;2023-03-21T15:00:43;25.30;56.90
1175;DHT22;576;48.418;10.074;2023-03-21T15:03:15;25.30;57.00
1175;DHT22;576;48.418;10.074;2023-03-21T15:05:44;25.30;57.20
1175;DHT22;576;48.418;10.074;2023-03-21T15:08:16;25.30;57.20
1175;DHT22;576;48.418;10.074;2023-03-21T15:10:54;25.30;57.10
1175;DHT22;576;48.418;10.074;2023-03-21T15:13:34;25.30;57.10
1175;DHT22;576;48.418;10.074;2023-03-21T15:16:03;25.30;57.20
1175;DHT22;576;48.418;10.074;2023-03-21T15:18:35;25.30;57.00
1175;DHT22;576;48.418;10.074;2023-03-21T15:21:07;25.30;57.10
1175;DHT22;576;48.418;10.074;2023-03-21T15:23:40;25.30;57.10
1175;DHT22;576;48.418;10.074;2023-03-21T15:26:13;25.30;57.20
1175;DHT22;576;48.418;10.074;2023-03-21T15:28:44;25.30;57.40
1175;DHT22;576;48.418;10.074;2023-03-21T15:31:15;25.30;57.40
1175;DHT22;576;48.418;10.074;2023-03-21T15:33:46;25.30;57.70
1175;DHT22;576;48.418;10.074;2023-03-21T15:36:18;25.30;57.80
1175;DHT22;576;48.418;10.074;2023-03-21T15:38:49;25.30;57.80
1175;DHT22;576;48.418;10.074;2023-03-21T15:41:25;25.30;57.80
1175;DHT22;576;48.418;10.074;2023-03-21T15:44:01;25.30;58.00
1175;DHT22;576;48.418;10.074;2023-03-21T15:46:38;25.30;57.90
1175;DHT22;576;48.418;10.074;2023-03-21T15:49:18;25.30;58.00
1175;DHT22;576;48.418;10.074;2023-03-21T15:51:50;25.30;58.00
1175;DHT22;576;48.418;10.074;2023-03-21T15:54:23;25.30;58.10
1175;DHT22;576;48.418;10.074;2023-03-21T15:56:54;25.30;58.10
1175;DHT22;576;48.418;10.074;2023-03-21T15:59:25;25.30;58.10
1175;DHT22;576;48.418;10.074;2023-03-21T16:01:54;25.20;58.10
1175;DHT22;576;48.418;10.074;2023-03-21T16:04:22;25.20;58.20
1175;DHT22;576;48.418;10.074;2023-03-21T16:06:57;25.20;58.10
1175;DHT22;576;48.418;10.074;2023-03-21T16:09:33;25.20;58.10
1175;DHT22;576;48.418;10.074;2023-03-21T16:12:10;25.20;58.10
1175;DHT22;576;48.418;10.074;2023-03-21T16:14:39;25.30;58.10
1175;DHT22;576;48.418;10.074;2023-03-21T16:17:26;25.20;58.10
1175;DHT22;576;48.418;10.074;2023-03-21T16:20:16;25.20;57.90
1175;DHT22;576;48.418;10.074;2023-03-21T16:23:19;25.20;57.70
1175;DHT22;576;48.418;10.074;2023-03-21T16:25:49;25.20;57.40
1175;DHT22;576;48.418;10.074;2023-03-21T16:28:33;25.20;57.30
1175;DHT22;576;48.418;10.074;2023-03-21T16:31:04;25.10;57.20
1175;DHT22;576;48.418;10.074;2023-03-21T16:33:32;25.10;57.10
1175;DHT22;576;48.418;10.074;2023-03-21T16:36:00;25.10;57.10
1175;DHT22;576;48.418;10.074;2023-03-21T16:38:32;25.10;57.00
1175;DHT22;576;48.418;10.074;2023-03-21T16:41:04;25.00;57.00
1175;DHT22;576;48.418;10.074;2023-03-21T16:43:33;25.00;57.00
1175;DHT22;576;48.418;10.074;2023-03-21T16:46:05;25.00;57.00
1175;DHT22;576;48.418;10.074;2023-03-21T16:48:33;25.00;57.00
1175;DHT22;576;48.418;10.074;2023-03-21T16:51:01;25.00;57.00